createdAt,value
2023-05-09T00:00:56.783Z,47.00
2023-05-09T00:02:00.545Z,46.83
2023-05-09T00:03:04.281Z,46.69
2023-05-09T00:04:08.148Z,46.88
2023-05-09T00:05:11.881Z,46.72
2023-05-09T00:06:15.932Z,45.75
2023-05-09T00:07:19.621Z,46.49
2023-05-09T00:08:23.306Z,46.32
2023-05-09T00:09:27.073Z,46.21
2023-05-09T00:10:30.850Z,45.92
2023-05-09T00:11:36.370Z,45.95
2023-05-09T00:12:40.117Z,46.17
2023-05-09T00:13:43.763Z,45.72
2023-05-09T00:14:47.423Z,45.87
2023-05-09T00:15:51.224Z,45.70
2023-05-09T00:16:55.111Z,45.89
2023-05-09T00:17:58.930Z,45.34
2023-05-09T00:19:02.558Z,45.58
2023-05-09T00:20:08.038Z,45.56
2023-05-09T00:21:11.936Z,45.74
2023-05-09T00:22:15.689Z,45.32
2023-05-09T00:23:19.461Z,45.55
2023-05-09T00:24:23.125Z,45.33
2023-05-09T00:25:27.066Z,45.91
2023-05-09T00:26:30.741Z,45.50
2023-05-09T00:27:36.336Z,45.51
2023-05-09T00:28:40.006Z,45.98
2023-05-09T00:29:43.777Z,45.57
2023-05-09T00:30:47.465Z,45.25
2023-05-09T00:31:51.246Z,45.38
2023-05-09T00:32:55.255Z,46.04
2023-05-09T00:33:59.019Z,45.75
2023-05-09T00:35:02.873Z,45.89
2023-05-09T00:36:07.035Z,45.94
2023-05-09T00:37:10.631Z,45.73
2023-05-09T00:38:14.287Z,45.72
2023-05-09T00:39:17.927Z,46.18
2023-05-09T00:40:21.722Z,46.36
2023-05-09T00:41:25.389Z,45.67
2023-05-09T00:42:29.215Z,46.11
2023-05-09T00:43:34.606Z,46.06
2023-05-09T00:44:38.515Z,45.49
2023-05-09T00:45:42.705Z,45.42
2023-05-09T00:46:46.479Z,45.66
2023-05-09T00:47:50.289Z,45.37
2023-05-09T00:48:54.138Z,45.71
2023-05-09T00:49:59.049Z,45.31
2023-05-09T00:51:02.708Z,45.49
2023-05-09T00:52:06.783Z,45.20
2023-05-09T00:53:11.012Z,45.62
2023-05-09T00:54:15.144Z,45.44
2023-05-09T00:55:19.635Z,45.37
2023-05-09T00:56:23.377Z,45.48
2023-05-09T00:57:27.061Z,45.42
2023-05-09T00:58:31.332Z,45.45
2023-05-09T00:59:36.909Z,45.60
2023-05-09T01:00:40.687Z,45.41
2023-05-09T01:01:44.417Z,45.47
2023-05-09T01:02:51.700Z,45.65
2023-05-09T01:03:55.883Z,45.62
2023-05-09T01:04:59.910Z,45.70
2023-05-09T01:06:08.024Z,45.66
2023-05-09T01:07:19.880Z,45.46
2023-05-09T01:08:35.258Z,44.97
2023-05-09T01:09:46.762Z,45.54
2023-05-09T01:10:58.476Z,45.83
2023-05-09T01:12:14.625Z,45.49
2023-05-09T01:13:31.009Z,45.46
2023-05-09T01:14:42.768Z,45.69
2023-05-09T01:16:02.154Z,45.70
2023-05-09T01:17:12.231Z,45.55
2023-05-09T01:18:22.281Z,46.18
2023-05-09T01:19:57.872Z,45.89
2023-05-09T01:21:07.300Z,45.91
2023-05-09T01:22:15.331Z,45.96
2023-05-09T01:24:06.111Z,46.21
2023-05-09T01:25:33.946Z,46.03
2023-05-09T01:26:45.254Z,45.87
2023-05-09T01:27:58.452Z,45.96
2023-05-09T01:29:43.204Z,46.13
2023-05-09T01:30:49.975Z,45.52
2023-05-09T01:31:56.587Z,45.96
2023-05-09T01:33:03.068Z,45.75
2023-05-09T01:34:08.035Z,45.67
2023-05-09T01:35:14.471Z,45.71
2023-05-09T01:36:20.472Z,45.96
2023-05-09T01:37:30.038Z,45.83
2023-05-09T01:38:35.472Z,45.68
2023-05-09T01:39:41.596Z,45.57
2023-05-09T01:40:48.597Z,45.52
2023-05-09T01:41:54.663Z,45.48
2023-05-09T01:43:02.129Z,45.74
2023-05-09T01:44:09.059Z,45.79
2023-05-09T01:45:16.445Z,45.61
2023-05-09T01:46:22.742Z,45.80
2023-05-09T01:47:27.051Z,45.54
2023-05-09T01:48:32.154Z,45.87
2023-05-09T01:49:38.622Z,45.57
2023-05-09T01:50:44.256Z,45.52
2023-05-09T01:51:49.259Z,45.49
2023-05-09T01:52:57.209Z,45.51
2023-05-09T01:54:02.759Z,45.38
2023-05-09T01:55:08.018Z,45.10
2023-05-09T01:56:12.945Z,45.57
2023-05-09T01:57:18.192Z,45.83
2023-05-09T01:58:23.316Z,45.54
2023-05-09T01:59:28.243Z,45.69
2023-05-09T02:00:34.204Z,45.61
2023-05-09T02:01:38.231Z,45.75
2023-05-09T02:02:42.533Z,45.95
2023-05-09T02:03:48.270Z,45.83
2023-05-09T02:04:52.521Z,45.88
2023-05-09T02:05:57.714Z,45.88
2023-05-09T02:07:03.492Z,46.35
2023-05-09T02:08:07.861Z,45.96
2023-05-09T02:09:12.093Z,45.89
2023-05-09T02:10:17.335Z,46.46
2023-05-09T02:11:21.143Z,46.75
2023-05-09T02:12:25.270Z,46.28
2023-05-09T02:13:29.080Z,45.98
2023-05-09T02:14:33.101Z,45.93
2023-05-09T02:15:38.974Z,46.51
2023-05-09T02:16:43.050Z,46.16
2023-05-09T02:17:46.858Z,45.79
2023-05-09T02:18:50.512Z,46.79
2023-05-09T02:19:54.107Z,46.42
2023-05-09T02:20:57.778Z,45.88
2023-05-09T02:22:01.800Z,45.47
2023-05-09T02:23:05.930Z,45.59
2023-05-09T02:24:09.885Z,45.47
2023-05-09T02:25:14.236Z,45.21
2023-05-09T02:26:18.486Z,45.86
2023-05-09T02:27:22.872Z,45.41
2023-05-09T02:28:28.169Z,45.05
2023-05-09T02:29:35.346Z,45.69
2023-05-09T02:30:43.776Z,45.14
2023-05-09T02:31:49.429Z,45.16
2023-05-09T02:32:57.484Z,45.01
2023-05-09T02:34:03.123Z,44.90
2023-05-09T02:35:09.535Z,44.71
2023-05-09T02:36:15.002Z,46.05
2023-05-09T02:37:19.689Z,45.07
2023-05-09T02:38:23.717Z,45.44
2023-05-09T02:39:27.470Z,45.46
2023-05-09T02:40:31.831Z,45.15
2023-05-09T02:41:35.523Z,45.79
2023-05-09T02:42:39.257Z,44.98
2023-05-09T02:43:43.194Z,45.10
2023-05-09T02:44:47.174Z,45.29
2023-05-09T02:45:52.708Z,45.26
2023-05-09T02:46:56.461Z,44.90
2023-05-09T02:48:00.344Z,44.77
2023-05-09T02:49:04.206Z,44.62
2023-05-09T02:50:09.107Z,45.06
2023-05-09T02:51:12.742Z,44.81
2023-05-09T02:52:16.355Z,45.00
2023-05-09T02:53:20.074Z,44.66
2023-05-09T02:54:23.780Z,44.28
2023-05-09T02:55:27.692Z,43.65
2023-05-09T02:56:31.439Z,44.31
2023-05-09T02:57:35.085Z,45.05
2023-05-09T02:58:38.915Z,43.92
2023-05-09T02:59:42.509Z,44.46
2023-05-09T03:00:46.196Z,44.73
2023-05-09T03:01:51.557Z,43.96
2023-05-09T03:02:55.284Z,44.82
2023-05-09T03:03:59.093Z,44.09
2023-05-09T03:05:02.961Z,44.54
2023-05-09T03:06:06.903Z,44.66
2023-05-09T03:07:10.582Z,44.85
2023-05-09T03:08:14.279Z,44.13
2023-05-09T03:09:17.976Z,44.36
2023-05-09T03:10:21.696Z,44.37
2023-05-09T03:11:25.469Z,43.92
2023-05-09T03:12:29.078Z,43.66
2023-05-09T03:13:32.810Z,44.05
2023-05-09T03:14:36.482Z,43.88
2023-05-09T03:15:40.181Z,43.39
2023-05-09T03:16:43.870Z,43.90
2023-05-09T03:17:49.288Z,43.64
2023-05-09T03:18:52.985Z,43.65
2023-05-09T03:19:56.668Z,42.69
2023-05-09T03:21:00.375Z,43.15
2023-05-09T03:22:04.167Z,42.29
2023-05-09T03:23:07.960Z,42.81
2023-05-09T03:24:11.983Z,42.99
2023-05-09T03:25:15.888Z,43.06
2023-05-09T03:26:19.667Z,42.87
2023-05-09T03:27:23.274Z,43.06
2023-05-09T03:28:26.923Z,42.39
2023-05-09T03:29:30.558Z,42.33
2023-05-09T03:30:34.219Z,42.11
2023-05-09T03:31:37.925Z,41.95
2023-05-09T03:32:41.734Z,41.98
2023-05-09T03:33:47.024Z,41.23
2023-05-09T03:34:50.689Z,40.89
2023-05-09T03:35:54.288Z,41.42
2023-05-09T03:36:58.015Z,40.78
2023-05-09T03:38:01.760Z,40.67
2023-05-09T03:39:05.415Z,40.68
2023-05-09T03:40:10.277Z,39.14
2023-05-09T03:41:17.443Z,38.52
2023-05-09T03:42:21.097Z,39.08
2023-05-09T03:43:24.776Z,39.40
2023-05-09T03:44:28.575Z,38.38
2023-05-09T03:45:32.235Z,39.20
2023-05-09T03:46:38.133Z,38.62
2023-05-09T03:47:41.918Z,39.13
2023-05-09T03:48:47.479Z,38.53
2023-05-09T03:49:51.133Z,37.98
2023-05-09T03:50:54.839Z,38.14
2023-05-09T03:51:58.524Z,38.28
2023-05-09T03:53:02.229Z,37.72
2023-05-09T03:54:06.102Z,37.93
2023-05-09T03:55:10.814Z,37.72
2023-05-09T03:56:14.723Z,36.97
2023-05-09T03:57:18.331Z,36.74
2023-05-09T03:58:22.045Z,35.58
2023-05-09T03:59:25.815Z,34.96
2023-05-09T04:00:29.598Z,35.46
2023-05-09T04:01:33.353Z,34.47
2023-05-09T04:02:37.263Z,35.22
2023-05-09T04:03:41.103Z,35.10
2023-05-09T04:04:46.777Z,35.29
2023-05-09T04:05:50.525Z,35.82
2023-05-09T04:06:54.222Z,35.21
2023-05-09T04:07:58.071Z,34.87
2023-05-09T04:09:01.888Z,35.78
2023-05-09T04:10:06.056Z,35.66
2023-05-09T04:11:09.656Z,35.55
2023-05-09T04:12:13.373Z,35.98
2023-05-09T04:13:17.353Z,35.99
2023-05-09T04:14:21.213Z,35.27
2023-05-09T04:15:25.022Z,36.25
2023-05-09T04:16:28.843Z,36.10
2023-05-09T04:17:32.557Z,35.43
2023-05-09T04:18:36.474Z,35.98
2023-05-09T04:19:40.223Z,35.88
2023-05-09T04:20:45.574Z,34.53
2023-05-09T04:21:49.303Z,33.88
2023-05-09T04:22:52.926Z,34.60
2023-05-09T04:23:56.614Z,33.68
2023-05-09T04:25:00.305Z,34.72
2023-05-09T04:26:03.990Z,34.79
2023-05-09T04:27:07.632Z,33.85
2023-05-09T04:28:11.480Z,33.48
2023-05-09T04:29:15.187Z,33.05
2023-05-09T04:30:19.172Z,33.57
2023-05-09T04:31:22.942Z,34.16
2023-05-09T04:32:26.774Z,34.15
2023-05-09T04:33:30.588Z,33.64
2023-05-09T04:34:34.257Z,33.33
2023-05-09T04:35:38.872Z,33.97
2023-05-09T04:36:44.373Z,33.51
2023-05-09T04:37:48.052Z,33.90
2023-05-09T04:38:51.657Z,34.14
2023-05-09T04:39:55.289Z,34.00
2023-05-09T04:40:58.944Z,33.79
2023-05-09T04:42:02.708Z,34.07
2023-05-09T04:43:06.500Z,33.75
2023-05-09T04:44:10.172Z,33.95
2023-05-09T04:45:13.983Z,34.15
2023-05-09T04:46:17.872Z,33.37
2023-05-09T04:47:21.599Z,34.49
2023-05-09T04:48:25.231Z,34.48
2023-05-09T04:49:28.834Z,33.23
2023-05-09T04:50:32.557Z,35.33
2023-05-09T04:51:36.276Z,34.31
2023-05-09T04:52:41.643Z,34.21
2023-05-09T04:53:45.332Z,33.64
2023-05-09T04:54:49.033Z,34.80
2023-05-09T04:55:52.675Z,34.35
2023-05-09T04:57:03.162Z,33.68
2023-05-09T04:58:11.072Z,34.09
2023-05-09T04:59:14.761Z,35.07
2023-05-09T05:00:18.726Z,33.99
2023-05-09T05:01:22.391Z,34.28
2023-05-09T05:02:26.137Z,34.52
2023-05-09T05:03:29.959Z,34.79
2023-05-09T05:04:33.737Z,34.18
2023-05-09T05:05:37.897Z,33.83
2023-05-09T05:06:41.630Z,33.96
2023-05-09T05:07:46.930Z,32.72
2023-05-09T05:08:50.629Z,33.26
2023-05-09T05:09:54.272Z,31.80
2023-05-09T05:10:58.340Z,32.62
2023-05-09T05:12:03.637Z,31.88
2023-05-09T05:13:08.086Z,31.10
2023-05-09T05:14:11.838Z,31.57
2023-05-09T05:15:16.006Z,32.02
2023-05-09T05:16:19.877Z,30.49
2023-05-09T05:17:23.608Z,31.29
2023-05-09T05:18:27.358Z,29.47
2023-05-09T05:19:31.092Z,31.23
2023-05-09T05:20:35.490Z,30.41
2023-05-09T05:21:39.142Z,30.72
2023-05-09T05:22:42.833Z,29.83
2023-05-09T05:23:48.183Z,30.16
2023-05-09T05:24:51.913Z,29.44
2023-05-09T05:25:55.608Z,29.03
2023-05-09T05:26:59.260Z,29.62
2023-05-09T05:28:02.957Z,30.07
2023-05-09T05:29:06.702Z,29.32
2023-05-09T05:30:11.285Z,29.61
2023-05-09T05:31:14.904Z,29.57
2023-05-09T05:32:18.643Z,29.59
2023-05-09T05:33:22.281Z,29.31
2023-05-09T05:34:26.029Z,29.96
2023-05-09T05:35:29.724Z,28.79
2023-05-09T05:36:33.432Z,29.65
2023-05-09T05:37:37.101Z,28.66
2023-05-09T05:38:40.900Z,29.35
2023-05-09T05:39:46.399Z,28.66
2023-05-09T05:40:50.100Z,28.29
2023-05-09T05:41:53.749Z,28.65
2023-05-09T05:42:57.363Z,28.30
2023-05-09T05:44:01.032Z,29.42
2023-05-09T05:45:04.874Z,29.02
2023-05-09T05:46:08.696Z,29.49
2023-05-09T05:47:12.350Z,30.15
2023-05-09T05:48:16.426Z,29.25
2023-05-09T05:49:20.069Z,29.56
2023-05-09T05:50:23.818Z,29.28
2023-05-09T05:51:27.587Z,29.51
2023-05-09T05:52:31.731Z,29.37
2023-05-09T05:53:35.373Z,29.66
2023-05-09T05:54:39.479Z,29.98
2023-05-09T05:55:44.804Z,29.22
2023-05-09T05:56:48.572Z,30.02
2023-05-09T05:57:52.232Z,29.88
2023-05-09T05:58:55.871Z,30.42
2023-05-09T05:59:59.541Z,30.08
2023-05-09T06:01:03.234Z,29.68
2023-05-09T06:02:07.582Z,30.75
2023-05-09T06:03:14.774Z,31.12
2023-05-09T06:04:18.707Z,30.77
2023-05-09T06:05:22.547Z,30.82
2023-05-09T06:06:27.726Z,30.59
2023-05-09T06:07:31.484Z,31.40
2023-05-09T06:08:35.102Z,31.13
2023-05-09T06:09:38.850Z,31.55
2023-05-09T06:10:44.415Z,31.93
2023-05-09T06:11:48.100Z,32.48
2023-05-09T06:12:51.964Z,31.42
2023-05-09T06:13:55.836Z,31.70
2023-05-09T06:14:59.468Z,30.91
2023-05-09T06:16:15.043Z,31.85
2023-05-09T06:17:22.775Z,31.75
2023-05-09T06:18:33.432Z,31.37
2023-05-09T20:03:03.192Z,47.63
2023-05-09T20:04:06.921Z,47.37
2023-05-09T20:05:11.074Z,47.50
2023-05-09T20:06:14.732Z,47.04
2023-05-09T20:07:18.842Z,47.58
2023-05-09T20:08:22.699Z,47.06
2023-05-09T20:09:26.438Z,47.35
2023-05-09T20:10:30.087Z,47.02
2023-05-09T20:11:33.793Z,47.83
2023-05-09T20:12:37.492Z,47.21
2023-05-09T20:13:41.240Z,46.98
2023-05-09T20:14:45.180Z,47.36
2023-05-09T20:15:49.185Z,47.83
2023-05-09T20:16:52.872Z,47.08
2023-05-09T20:17:56.560Z,46.94
2023-05-09T20:19:01.891Z,47.46
2023-05-09T20:20:06.184Z,47.07
2023-05-09T20:21:09.901Z,47.37
2023-05-09T20:22:13.582Z,46.75
2023-05-09T20:23:17.280Z,47.75
2023-05-09T20:24:21.193Z,47.13
2023-05-09T20:25:25.091Z,46.93
2023-05-09T20:26:28.746Z,47.43
2023-05-09T20:27:32.397Z,47.12
2023-05-09T20:28:36.084Z,47.39
2023-05-09T20:29:39.768Z,47.36
2023-05-09T20:30:43.428Z,47.64
2023-05-09T20:31:47.158Z,47.06
2023-05-09T20:32:51.062Z,46.75
2023-05-09T20:33:54.785Z,47.25
2023-05-09T20:35:00.104Z,46.95
2023-05-09T20:36:03.728Z,47.39
2023-05-09T20:37:07.490Z,47.46
2023-05-09T20:38:11.470Z,46.54
2023-05-09T20:39:15.166Z,47.14
2023-05-09T20:40:19.042Z,46.90
2023-05-09T20:41:23.062Z,47.13
2023-05-09T20:42:26.717Z,46.90
2023-05-09T20:43:30.536Z,47.01
2023-05-09T20:44:34.548Z,47.24
2023-05-09T20:45:38.299Z,47.26
2023-05-09T20:46:42.107Z,46.74
2023-05-09T20:47:45.849Z,47.00
2023-05-09T20:48:49.571Z,46.60
2023-05-09T20:49:53.319Z,47.01
2023-05-09T20:50:58.628Z,47.07
2023-05-09T20:52:02.320Z,47.11
2023-05-09T20:53:05.979Z,46.58
2023-05-09T20:54:09.819Z,47.17
2023-05-09T20:55:13.678Z,47.57
2023-05-09T20:56:17.475Z,47.03
2023-05-09T20:57:21.213Z,46.80
2023-05-09T20:58:24.822Z,47.08
2023-05-09T20:59:28.467Z,46.75
2023-05-09T21:00:32.291Z,47.38
2023-05-09T21:01:35.907Z,46.82
2023-05-09T21:02:39.743Z,47.45
2023-05-09T21:03:43.513Z,47.51
2023-05-09T21:04:47.177Z,47.16
2023-05-09T21:05:50.938Z,46.71
2023-05-09T21:06:56.240Z,47.15
2023-05-09T21:07:59.885Z,47.07
2023-05-09T21:09:03.907Z,47.37
2023-05-09T21:10:08.940Z,46.70
2023-05-09T21:11:12.656Z,47.42
2023-05-09T21:12:16.492Z,47.15
2023-05-09T21:13:20.356Z,47.12
2023-05-09T21:14:24.042Z,46.90
2023-05-09T21:15:27.783Z,47.03
2023-05-09T21:16:31.536Z,47.55
2023-05-09T21:17:35.275Z,47.38
2023-05-09T21:18:39.035Z,47.27
2023-05-09T21:19:42.718Z,47.34
2023-05-09T21:20:46.427Z,47.07
2023-05-09T21:21:50.097Z,47.63
2023-05-09T21:22:55.430Z,46.89
2023-05-09T21:23:59.159Z,47.83
2023-05-09T21:25:02.784Z,47.01
2023-05-09T21:26:06.692Z,47.50
2023-05-09T21:27:10.460Z,47.71
2023-05-09T21:28:14.073Z,47.72
2023-05-09T21:29:17.834Z,47.27
2023-05-09T21:30:21.624Z,47.28
2023-05-09T21:31:25.525Z,47.45
2023-05-09T21:32:29.157Z,47.62
2023-05-09T21:33:32.840Z,47.48
2023-05-09T21:34:36.560Z,47.68
2023-05-09T21:35:40.184Z,47.75
2023-05-09T21:36:43.888Z,47.66
2023-05-09T21:37:47.636Z,47.86
2023-05-09T21:38:52.965Z,47.24
2023-05-09T21:39:56.603Z,47.03
2023-05-09T21:41:00.198Z,47.34
2023-05-09T21:42:03.892Z,47.50
2023-05-09T21:43:07.489Z,47.21
2023-05-09T21:44:11.100Z,47.97
2023-05-09T21:45:14.966Z,48.07
2023-05-09T21:46:18.632Z,47.82
2023-05-09T21:47:22.524Z,47.67
2023-05-09T21:48:26.410Z,47.10
2023-05-09T21:49:30.148Z,47.67
2023-05-09T21:50:33.954Z,47.77
2023-05-09T21:51:37.680Z,48.05
2023-05-09T21:52:41.446Z,47.54
2023-05-09T21:53:45.183Z,47.95
2023-05-09T21:54:50.598Z,47.45
2023-05-09T21:55:54.238Z,47.99
2023-05-09T21:56:57.890Z,47.48
2023-05-09T21:58:01.622Z,47.35
2023-05-09T21:59:05.431Z,47.60
2023-05-09T22:00:10.477Z,47.40
2023-05-09T22:01:14.252Z,48.31
2023-05-09T22:02:18.224Z,47.78
2023-05-09T22:03:22.071Z,47.51
2023-05-09T22:04:25.818Z,47.46
2023-05-09T22:05:29.558Z,47.51
2023-05-09T22:06:33.351Z,48.10
2023-05-09T22:07:37.141Z,48.03
2023-05-09T22:08:40.842Z,48.27
2023-05-09T22:09:44.552Z,47.77
2023-05-09T22:10:49.808Z,47.86
2023-05-09T22:11:53.947Z,48.20
2023-05-09T22:12:57.707Z,47.73
2023-05-09T22:14:01.551Z,47.40
2023-05-09T22:15:05.938Z,47.74
2023-05-09T22:16:09.716Z,47.38
2023-05-09T22:17:13.384Z,47.54
2023-05-09T22:18:17.062Z,48.19
2023-05-09T22:19:20.704Z,47.95
2023-05-09T22:20:24.644Z,48.09
2023-05-09T22:21:28.256Z,47.69
2023-05-09T22:22:31.983Z,47.78
2023-05-09T22:23:35.752Z,48.29
2023-05-09T22:24:39.994Z,48.15
2023-05-09T22:25:43.612Z,48.51
2023-05-09T22:26:48.920Z,48.76
2023-05-09T22:27:52.786Z,48.65
2023-05-09T22:28:56.475Z,48.50
2023-05-09T22:30:00.188Z,48.14
2023-05-09T22:31:05.632Z,47.97
2023-05-09T22:32:09.356Z,48.45
2023-05-09T22:33:13.062Z,48.08
2023-05-09T22:34:16.926Z,48.55
2023-05-09T22:35:20.627Z,47.92
2023-05-09T22:36:24.326Z,48.60
2023-05-09T22:37:28.042Z,48.66
2023-05-09T22:38:31.719Z,48.50
2023-05-09T22:39:35.497Z,48.15
2023-05-09T22:40:39.264Z,48.47
2023-05-09T22:41:42.917Z,48.07
2023-05-09T22:42:48.238Z,48.77
2023-05-09T22:43:51.925Z,48.66
2023-05-09T22:44:55.719Z,48.45
2023-05-09T22:45:59.475Z,48.98
2023-05-09T22:47:03.143Z,48.81
2023-05-09T22:48:07.387Z,48.50
2023-05-09T22:49:11.142Z,48.61
2023-05-09T22:50:15.066Z,48.35
2023-05-09T22:51:19.227Z,48.90
2023-05-09T22:52:22.926Z,48.94
2023-05-09T22:53:26.633Z,48.78
2023-05-09T22:54:30.348Z,49.26
2023-05-09T22:55:34.053Z,49.00
2023-05-09T22:56:37.665Z,48.49
2023-05-09T22:57:42.010Z,48.42
2023-05-09T22:58:47.383Z,48.65
2023-05-09T22:59:51.236Z,49.08
2023-05-09T23:00:55.032Z,48.96
2023-05-09T23:01:59.397Z,48.67
2023-05-09T23:03:03.568Z,48.63
2023-05-09T23:04:07.320Z,48.78
2023-05-09T23:05:11.242Z,48.65
2023-05-09T23:06:14.886Z,48.52
2023-05-09T23:07:18.623Z,48.59
2023-05-09T23:08:22.209Z,48.81
2023-05-09T23:09:25.830Z,48.64
2023-05-09T23:10:29.531Z,48.75
2023-05-09T23:11:33.227Z,48.78
2023-05-09T23:12:36.855Z,48.04
2023-05-09T23:13:40.475Z,48.41
2023-05-09T23:14:45.763Z,48.51
2023-05-09T23:15:49.518Z,48.88
2023-05-09T23:16:53.219Z,47.99
2023-05-09T23:17:56.900Z,48.55
2023-05-09T23:19:00.664Z,48.36
2023-05-09T23:20:04.488Z,48.66
2023-05-09T23:21:08.241Z,48.95
2023-05-09T23:22:11.957Z,48.67
2023-05-09T23:23:15.687Z,48.74
2023-05-09T23:24:19.368Z,49.19
2023-05-09T23:25:23.234Z,48.44
2023-05-09T23:26:26.939Z,48.31
2023-05-09T23:27:30.696Z,48.70
2023-05-09T23:28:34.416Z,48.41
2023-05-09T23:29:38.051Z,48.73
2023-05-09T23:30:43.373Z,48.39
2023-05-09T23:31:47.171Z,48.51
2023-05-09T23:32:51.008Z,49.47
2023-05-09T23:33:54.636Z,49.19
2023-05-09T23:34:58.253Z,49.25
2023-05-09T23:36:01.888Z,49.06
2023-05-09T23:37:05.929Z,48.33
2023-05-09T23:38:09.708Z,48.72
2023-05-09T23:39:13.360Z,48.57
2023-05-09T23:40:17.236Z,48.13
2023-05-09T23:41:21.335Z,48.37
2023-05-09T23:42:24.952Z,48.81
2023-05-09T23:43:28.839Z,48.71
2023-05-09T23:44:32.551Z,48.85
2023-05-09T23:45:36.184Z,48.62
2023-05-09T23:46:41.512Z,48.45
2023-05-09T23:47:45.346Z,48.62
2023-05-09T23:48:49.070Z,48.51
2023-05-09T23:49:52.756Z,48.33
2023-05-09T23:50:56.493Z,48.34
2023-05-09T23:52:00.193Z,48.22
2023-05-09T23:53:03.831Z,48.15
2023-05-09T23:54:07.697Z,47.96
2023-05-09T23:55:11.601Z,47.99
2023-05-09T23:56:15.299Z,48.32
2023-05-09T23:57:19.106Z,47.71
2023-05-09T23:58:22.816Z,48.43
2023-05-09T23:59:26.539Z,48.39
